createdAt,value
2023-02-08T00:01:13.501Z,103730.25
2023-02-08T00:06:18.064Z,103738.91
2023-02-08T00:11:20.999Z,103738.53
2023-02-08T00:16:23.978Z,103730.94
2023-02-08T00:21:28.087Z,103719.88
2023-02-08T00:26:30.874Z,103726.06
2023-02-08T00:31:33.702Z,103706.19
2023-02-08T00:36:37.958Z,103708.69
2023-02-08T00:41:40.640Z,103697.38
2023-02-08T00:46:43.419Z,103698.91
2023-02-08T00:51:48.171Z,103706.53
2023-02-08T00:56:50.896Z,103706.16
2023-02-08T01:01:55.010Z,103705.50
2023-02-08T01:07:00.406Z,103697.50
2023-02-08T01:12:03.318Z,103698.13
2023-02-08T01:17:06.205Z,103693.56
2023-02-08T01:22:10.435Z,103705.19
2023-02-08T01:27:13.636Z,103703.03
2023-02-08T01:32:16.364Z,103698.13
2023-02-08T01:37:20.564Z,103696.38
2023-02-08T01:42:23.565Z,103692.03
2023-02-08T01:47:26.426Z,103681.38
2023-02-08T01:52:30.702Z,103675.69
2023-02-08T01:57:33.838Z,103681.38
2023-02-08T02:02:38.094Z,103676.66
2023-02-08T02:07:42.585Z,103683.50
2023-02-08T02:12:46.537Z,103682.31
2023-02-08T02:17:49.643Z,103679.41
2023-02-08T02:23:37.224Z,103693.47
2023-02-08T02:29:07.370Z,103685.78
2023-02-08T02:34:21.247Z,103685.16
2023-02-08T02:39:32.904Z,103688.97
2023-02-08T02:44:40.026Z,103688.50
2023-02-08T02:49:51.249Z,103691.44
2023-02-08T02:54:56.893Z,103691.44
2023-02-08T03:00:01.090Z,103701.84
2023-02-08T03:05:11.661Z,103697.69
2023-02-08T03:10:27.220Z,103687.53
2023-02-08T03:15:41.288Z,103679.09
2023-02-08T03:20:50.552Z,103702.22
2023-02-08T03:26:01.680Z,103707.03
2023-02-08T03:31:09.686Z,103703.84
2023-02-08T03:36:23.071Z,103715.38
2023-02-08T03:41:31.929Z,103703.94
2023-02-08T03:46:39.050Z,103701.91
2023-02-08T03:51:45.211Z,103703.44
2023-02-08T03:56:52.628Z,103707.91
2023-02-08T04:01:59.204Z,103702.94
2023-02-08T04:07:03.555Z,103705.19
2023-02-08T04:12:06.890Z,103706.03
2023-02-08T04:17:09.727Z,103709.09
2023-02-08T04:22:13.837Z,103707.75
2023-02-08T04:27:16.705Z,103699.91
2023-02-08T04:32:19.497Z,103694.28
2023-02-08T04:37:24.659Z,103691.09
2023-02-08T04:42:27.609Z,103685.59
2023-02-08T04:47:30.364Z,103696.56
2023-02-08T04:52:34.417Z,103698.41
2023-02-08T04:57:37.193Z,103690.75
2023-02-08T05:02:39.921Z,103687.84
2023-02-08T05:07:44.209Z,103693.97
2023-02-08T05:12:47.048Z,103683.03
2023-02-08T05:17:49.929Z,103683.47
2023-02-08T05:22:54.017Z,103676.59
2023-02-08T05:27:56.795Z,103675.94
2023-02-08T05:32:59.582Z,103674.19
2023-02-08T05:38:03.714Z,103673.53
2023-02-08T05:43:06.463Z,103663.31
2023-02-08T05:48:09.242Z,103654.09
2023-02-08T05:53:13.503Z,103660.63
2023-02-08T05:58:16.600Z,103669.66
2023-02-08T06:03:19.458Z,103666.59
2023-02-08T06:08:23.611Z,103659.16
2023-02-08T06:13:26.431Z,103665.53
2023-02-08T06:18:29.388Z,103668.31
2023-02-08T06:23:33.528Z,103676.22
2023-02-08T06:28:36.299Z,103686.09
2023-02-08T06:33:39.125Z,103688.72
2023-02-08T06:38:43.248Z,103679.75
2023-02-08T06:43:46.216Z,103682.84
2023-02-08T06:48:48.948Z,103679.25
2023-02-08T06:53:53.770Z,103692.78
2023-02-08T06:58:57.346Z,103686.88
2023-02-08T07:04:00.978Z,103694.25
2023-02-08T07:09:05.729Z,103684.78
2023-02-08T07:14:08.550Z,103675.97
2023-02-08T07:19:11.324Z,103673.56
2023-02-08T07:24:15.419Z,103678.31
2023-02-08T07:29:18.218Z,103676.34
2023-02-08T07:34:22.262Z,103679.44
2023-02-08T07:39:26.794Z,103664.56
2023-02-08T07:44:29.658Z,103673.31
2023-02-08T07:49:32.484Z,103672.78
2023-02-08T07:54:36.571Z,103670.72
2023-02-08T07:59:39.338Z,103669.19
2023-02-08T08:04:42.223Z,103669.97
2023-02-08T08:09:46.511Z,103668.72
2023-02-08T08:14:49.329Z,103662.16
2023-02-08T08:19:52.070Z,103660.00
2023-02-08T08:24:56.203Z,103657.38
2023-02-08T08:29:59.843Z,103646.97
2023-02-08T08:35:02.605Z,103642.34
2023-02-08T08:40:08.706Z,103651.63
2023-02-08T08:45:12.609Z,103651.94
2023-02-08T08:50:15.871Z,103649.09
2023-02-08T08:55:20.350Z,103656.84
2023-02-08T09:00:23.585Z,103640.09
2023-02-08T09:05:26.611Z,103643.19
2023-02-08T09:10:31.449Z,103636.53
2023-02-08T09:15:34.423Z,103638.53
2023-02-08T09:20:38.764Z,103642.91
2023-02-08T09:25:43.152Z,103653.41
2023-02-08T09:30:46.240Z,103640.31
2023-02-08T09:35:49.663Z,103640.44
2023-02-08T09:41:05.299Z,103643.56
2023-02-08T09:46:16.087Z,103643.81
2023-02-08T09:51:26.317Z,103640.34
2023-02-08T09:56:36.263Z,103642.72
2023-02-08T10:01:39.489Z,103634.63
2023-02-08T10:06:45.343Z,103637.38
2023-02-08T10:12:03.697Z,103629.72
2023-02-08T10:17:25.339Z,103635.44
2023-02-08T10:22:39.564Z,103631.06
2023-02-08T10:27:53.846Z,103636.19
2023-02-08T10:33:02.122Z,103639.44
2023-02-08T10:38:25.191Z,103635.75
2023-02-08T10:43:38.645Z,103640.34
2023-02-08T10:49:03.699Z,103644.53
2023-02-08T10:54:06.892Z,103634.09
2023-02-08T10:59:17.841Z,103634.34
2023-02-08T11:04:21.566Z,103619.91
2023-02-08T11:09:27.426Z,103623.56
2023-02-08T11:14:46.711Z,103623.16
2023-02-08T11:19:51.824Z,103611.16
2023-02-08T11:24:57.887Z,103609.94
2023-02-08T11:30:21.453Z,103611.84
2023-02-08T11:35:26.897Z,103593.41
2023-02-08T11:40:36.770Z,103591.53
2023-02-08T11:45:47.695Z,103581.66
2023-02-08T11:50:55.599Z,103581.69
2023-02-08T11:56:05.022Z,103577.22
2023-02-08T12:01:20.329Z,103580.31
2023-02-08T12:06:50.267Z,103575.03
2023-02-08T12:12:02.389Z,103564.00
2023-02-08T12:17:36.973Z,103559.44
2023-02-08T12:22:43.860Z,103556.84
2023-02-08T12:27:53.406Z,103539.91
2023-02-08T12:33:25.381Z,103530.06
2023-02-08T12:39:17.902Z,103523.94
2023-02-08T12:44:33.788Z,103514.28
2023-02-08T12:49:58.710Z,103496.94
2023-02-08T12:55:04.005Z,103486.44
2023-02-08T13:00:15.831Z,103482.41
2023-02-08T13:05:23.318Z,103472.91
2023-02-08T13:10:30.412Z,103465.06
2023-02-08T13:15:40.532Z,103465.66
2023-02-08T13:20:48.993Z,103456.41
2023-02-08T13:25:53.222Z,103438.09
2023-02-08T13:31:00.993Z,103447.94
2023-02-08T13:36:06.069Z,103440.97
2023-02-08T13:41:17.632Z,103423.97
2023-02-08T13:46:23.000Z,103421.00
2023-02-08T13:52:03.350Z,103414.31
2023-02-08T13:57:44.983Z,103405.09
2023-02-08T14:03:01.115Z,103403.91
2023-02-08T14:08:07.217Z,103395.06
2023-02-08T14:13:26.763Z,103398.53
2023-02-08T14:18:31.474Z,103396.31
2023-02-08T14:23:40.222Z,103389.19
2023-02-08T14:28:48.768Z,103384.75
2023-02-08T14:33:56.045Z,103361.97
2023-02-08T14:39:26.178Z,103360.16
2023-02-08T14:44:59.326Z,103346.75
2023-02-08T14:50:13.976Z,103356.03
2023-02-08T14:55:20.900Z,103338.34
2023-02-08T15:00:27.210Z,103345.66
2023-02-08T15:05:36.245Z,103338.06
2023-02-08T15:10:44.755Z,103338.19
2023-02-08T15:15:53.484Z,103336.25
2023-02-08T15:21:00.710Z,103333.47
2023-02-08T15:26:05.714Z,103332.28
2023-02-08T15:31:10.666Z,103329.06
2023-02-08T15:36:19.890Z,103327.31
2023-02-08T15:41:27.245Z,103322.19
2023-02-08T15:46:30.859Z,103314.28
2023-02-08T15:51:35.190Z,103312.13
2023-02-08T15:56:42.404Z,103312.84
2023-02-08T16:01:48.003Z,103309.75
2023-02-08T16:06:55.151Z,103307.59
2023-02-08T16:12:01.188Z,103309.34
2023-02-08T16:17:05.130Z,103298.84
2023-02-08T16:22:30.594Z,103304.03
2023-02-08T16:27:33.759Z,103288.91
2023-02-08T16:32:39.647Z,103288.25
2023-02-08T16:37:44.014Z,103286.09
2023-02-08T16:42:46.993Z,103269.72
2023-02-08T16:47:53.060Z,103263.53
2023-02-08T16:53:00.870Z,103252.03
2023-02-08T16:58:03.865Z,103255.16
2023-02-08T17:03:06.651Z,103258.72
2023-02-08T17:08:16.487Z,103250.22
2023-02-08T17:13:21.449Z,103243.72
2023-02-08T17:18:24.308Z,103236.06
2023-02-08T17:23:28.746Z,103237.19
2023-02-08T17:28:34.468Z,103245.84
2023-02-08T17:33:40.083Z,103231.50
2023-02-08T17:38:46.072Z,103230.69
2023-02-08T17:43:50.998Z,103227.66
2023-02-08T17:48:54.372Z,103231.06
2023-02-08T17:53:58.591Z,103221.00
2023-02-08T17:59:03.902Z,103225.72
2023-02-08T18:04:06.974Z,103215.22
2023-02-08T18:09:11.206Z,103218.44
2023-02-08T18:14:14.274Z,103207.41
2023-02-08T18:19:17.206Z,103198.81
2023-02-08T18:24:21.406Z,103197.63
2023-02-08T18:29:24.912Z,103198.34
2023-02-08T18:34:27.829Z,103189.91
2023-02-08T18:39:32.221Z,103192.19
2023-02-08T18:44:36.806Z,103190.09
2023-02-08T18:49:41.353Z,103178.56
2023-02-08T18:54:45.580Z,103166.81
2023-02-08T18:59:48.441Z,103158.50
2023-02-08T19:04:51.261Z,103149.13
2023-02-08T19:09:55.628Z,103154.56
2023-02-08T19:15:00.009Z,103144.66
2023-02-08T19:20:02.954Z,103149.25
2023-02-08T19:25:08.426Z,103143.16
2023-02-08T19:30:16.006Z,103139.41
2023-02-08T19:35:19.752Z,103143.78
2023-02-08T19:40:24.625Z,103145.69
2023-02-08T19:45:27.547Z,103137.44
2023-02-08T19:50:30.547Z,103135.56
2023-02-08T19:55:34.707Z,103135.13
2023-02-08T20:00:37.564Z,103134.00
2023-02-08T20:05:50.149Z,103129.84
2023-02-08T20:11:01.558Z,103123.34
2023-02-08T20:16:11.102Z,103116.59
2023-02-08T20:21:24.009Z,103124.06
2023-02-08T20:26:39.703Z,103106.38
2023-02-08T20:31:57.560Z,103107.81
2023-02-08T20:37:07.647Z,103111.38
2023-02-08T20:42:17.633Z,103116.91
2023-02-08T20:47:28.540Z,103122.03
2023-02-08T20:52:41.235Z,103107.28
2023-02-08T20:57:59.008Z,103114.28
2023-02-08T21:03:10.305Z,103114.06
2023-02-08T21:08:15.361Z,103106.91
2023-02-08T21:13:21.266Z,103096.69
2023-02-08T21:18:25.527Z,103105.56
2023-02-08T21:23:34.495Z,103094.88
2023-02-08T21:28:41.470Z,103092.81
2023-02-08T21:33:47.155Z,103092.81
2023-02-08T21:38:56.874Z,103102.59
2023-02-08T21:44:11.785Z,103097.66
2023-02-08T21:49:31.962Z,103091.50
2023-02-08T21:54:53.144Z,103078.06
2023-02-08T21:59:59.520Z,103063.94
2023-02-08T22:05:04.394Z,103051.03
2023-02-08T22:10:08.232Z,103042.22
2023-02-08T22:15:14.772Z,103037.16
2023-02-08T22:20:17.704Z,103032.56
2023-02-08T22:25:21.167Z,103018.38
2023-02-08T22:30:25.810Z,103023.94
2023-02-08T22:35:28.884Z,103027.66
2023-02-08T22:40:31.697Z,103004.09
2023-02-08T22:45:36.037Z,103008.91
2023-02-08T22:50:39.686Z,103003.63
2023-02-08T22:55:49.661Z,103001.38
2023-02-08T23:00:53.806Z,102993.25
2023-02-08T23:05:56.690Z,102990.69
2023-02-08T23:11:01.176Z,102995.13
2023-02-08T23:16:08.216Z,102992.56
2023-02-08T23:21:13.783Z,102983.38
2023-02-08T23:26:19.865Z,102983.59
2023-02-08T23:31:24.105Z,102970.84
2023-02-08T23:36:27.605Z,102975.06
2023-02-08T23:41:30.436Z,102961.44
2023-02-08T23:46:34.773Z,102959.34
2023-02-08T23:51:37.896Z,102960.53
2023-02-08T23:56:40.785Z,102954.75
